createdAt,value
2023-02-08T00:00:49.819Z,12.30
2023-02-08T00:01:50.082Z,12.60
2023-02-08T00:02:50.346Z,12.10
2023-02-08T00:03:50.684Z,12.60
2023-02-08T00:04:50.922Z,12.70
2023-02-08T00:05:51.185Z,12.40
2023-02-08T00:06:51.431Z,12.40
2023-02-08T00:07:51.697Z,12.10
2023-02-08T00:08:51.960Z,11.70
2023-02-08T00:09:52.213Z,12.00
2023-02-08T00:10:52.457Z,11.40
2023-02-08T00:11:52.700Z,12.20
2023-02-08T00:12:52.958Z,11.10
2023-02-08T00:13:53.212Z,12.40
2023-02-08T00:14:53.439Z,12.40
2023-02-08T00:15:53.733Z,11.40
2023-02-08T00:16:53.975Z,11.60
2023-02-08T00:17:54.214Z,11.50
2023-02-08T00:18:54.471Z,11.90
2023-02-08T00:19:54.719Z,11.80
2023-02-08T00:20:54.951Z,12.00
2023-02-08T00:21:55.200Z,12.30
2023-02-08T00:22:55.451Z,12.00
2023-02-08T00:23:55.731Z,12.00
2023-02-08T00:24:55.991Z,11.40
2023-02-08T00:25:56.230Z,11.50
2023-02-08T00:26:56.461Z,12.40
2023-02-08T00:27:56.726Z,11.10
2023-02-08T00:28:56.980Z,12.20
2023-02-08T00:29:57.219Z,12.30
2023-02-08T00:30:57.558Z,12.50
2023-02-08T00:31:57.790Z,12.30
2023-02-08T00:32:58.083Z,11.90
2023-02-08T00:33:58.307Z,12.10
2023-02-08T00:34:58.538Z,12.60
2023-02-08T00:35:58.805Z,11.50
2023-02-08T00:36:59.053Z,11.60
2023-02-08T00:37:59.313Z,11.40
2023-02-08T00:38:59.572Z,12.70
2023-02-08T00:39:59.835Z,12.50
2023-02-08T00:41:00.094Z,12.70
2023-02-08T00:42:00.336Z,12.20
2023-02-08T00:43:00.583Z,12.20
2023-02-08T00:44:00.857Z,12.70
2023-02-08T00:45:01.090Z,11.90
2023-02-08T00:46:01.344Z,12.00
2023-02-08T00:47:01.596Z,11.90
2023-02-08T00:48:01.835Z,12.30
2023-02-08T00:49:02.110Z,12.20
2023-02-08T00:50:02.357Z,12.30
2023-02-08T00:51:02.597Z,12.00
2023-02-08T00:52:02.847Z,12.20
2023-02-08T00:53:03.084Z,12.50
2023-02-08T00:54:03.347Z,12.80
2023-02-08T00:55:03.585Z,13.50
2023-02-08T00:56:03.841Z,13.20
2023-02-08T00:57:04.085Z,13.70
2023-02-08T00:58:04.336Z,13.30
2023-02-08T00:59:04.594Z,13.20
2023-02-08T01:00:04.846Z,12.90
2023-02-08T01:01:05.151Z,12.70
2023-02-08T01:02:05.463Z,13.90
2023-02-08T01:03:05.686Z,12.70
2023-02-08T01:04:05.958Z,12.60
2023-02-08T01:05:06.198Z,13.30
2023-02-08T01:06:06.460Z,13.40
2023-02-08T01:07:06.696Z,12.40
2023-02-08T01:08:06.978Z,12.70
2023-02-08T01:09:07.269Z,12.60
2023-02-08T01:10:07.508Z,13.20
2023-02-08T01:11:07.758Z,12.30
2023-02-08T01:12:07.997Z,12.60
2023-02-08T01:13:08.266Z,11.80
2023-02-08T01:14:08.526Z,11.90
2023-02-08T01:15:08.768Z,12.30
2023-02-08T01:16:09.052Z,12.00
2023-02-08T01:17:09.280Z,12.00
2023-02-08T01:18:09.529Z,13.50
2023-02-08T01:19:09.810Z,13.20
2023-02-08T01:20:10.058Z,13.70
2023-02-08T01:21:10.288Z,13.00
2023-02-08T01:22:10.558Z,13.00
2023-02-08T01:23:10.797Z,14.10
2023-02-08T01:24:11.048Z,13.10
2023-02-08T01:25:11.306Z,13.00
2023-02-08T01:26:11.568Z,12.50
2023-02-08T01:27:11.787Z,12.20
2023-02-08T01:28:12.071Z,13.60
2023-02-08T01:29:12.342Z,11.90
2023-02-08T01:30:12.585Z,12.50
2023-02-08T01:31:12.884Z,12.70
2023-02-08T01:32:13.131Z,12.70
2023-02-08T01:33:13.369Z,12.90
2023-02-08T01:34:13.637Z,12.90
2023-02-08T01:35:13.858Z,12.20
2023-02-08T01:36:14.125Z,13.30
2023-02-08T01:37:14.338Z,12.50
2023-02-08T01:38:14.602Z,13.30
2023-02-08T01:39:14.860Z,12.60
2023-02-08T01:40:15.087Z,13.50
2023-02-08T01:41:15.387Z,12.00
2023-02-08T01:42:15.637Z,13.50
2023-02-08T01:43:15.874Z,12.40
2023-02-08T01:44:16.127Z,12.60
2023-02-08T01:45:16.363Z,13.50
2023-02-08T01:46:16.597Z,13.10
2023-02-08T01:47:16.850Z,12.80
2023-02-08T01:48:17.089Z,12.80
2023-02-08T01:49:17.385Z,13.10
2023-02-08T01:50:17.626Z,13.20
2023-02-08T01:51:17.876Z,13.20
2023-02-08T01:52:18.152Z,12.60
2023-02-08T01:53:18.384Z,12.20
2023-02-08T01:54:18.649Z,11.90
2023-02-08T01:55:18.889Z,12.30
2023-02-08T01:56:19.144Z,12.80
2023-02-08T01:57:19.397Z,12.70
2023-02-08T01:58:19.637Z,12.90
2023-02-08T01:59:19.912Z,12.70
2023-02-08T02:00:20.138Z,11.40
2023-02-08T02:01:20.473Z,12.20
2023-02-08T02:02:20.730Z,12.20
2023-02-08T02:03:21.049Z,12.40
2023-02-08T02:04:21.375Z,12.50
2023-02-08T02:05:21.618Z,12.70
2023-02-08T02:06:21.930Z,13.20
2023-02-08T02:07:22.164Z,13.00
2023-02-08T02:08:22.420Z,11.90
2023-02-08T02:09:22.680Z,12.60
2023-02-08T02:10:22.940Z,13.10
2023-02-08T02:11:23.161Z,12.10
2023-02-08T02:12:23.411Z,12.80
2023-02-08T02:13:23.661Z,13.00
2023-02-08T02:14:23.930Z,11.80
2023-02-08T02:15:24.173Z,12.00
2023-02-08T02:16:24.523Z,12.40
2023-02-08T02:17:24.642Z,12.40
2023-02-08T02:18:24.903Z,13.20
2023-02-08T02:19:25.188Z,12.70
2023-02-08T02:20:25.434Z,11.80
2023-02-08T02:21:25.674Z,12.70
2023-02-08T02:22:25.947Z,13.10
2023-02-08T02:23:26.184Z,13.30
2023-02-08T02:24:26.462Z,12.50
2023-02-08T02:25:26.688Z,12.70
2023-02-08T02:26:26.938Z,11.90
2023-02-08T02:27:27.188Z,13.60
2023-02-08T02:28:27.440Z,12.90
2023-02-08T02:29:27.680Z,13.50
2023-02-08T02:30:27.931Z,13.60
2023-02-08T02:31:28.177Z,13.50
2023-02-08T02:32:28.452Z,13.40
2023-02-08T02:33:28.689Z,12.70
2023-02-08T02:34:28.933Z,13.80
2023-02-08T02:35:29.183Z,14.80
2023-02-08T02:36:29.412Z,14.60
2023-02-08T02:37:29.659Z,14.40
2023-02-08T02:38:30.648Z,14.10
2023-02-08T02:39:30.232Z,13.40
2023-02-08T02:40:30.452Z,13.50
2023-02-08T02:41:30.803Z,13.10
2023-02-08T02:42:31.029Z,14.60
2023-02-08T02:43:31.397Z,13.60
2023-02-08T02:44:31.641Z,13.80
2023-02-08T02:45:31.954Z,14.20
2023-02-08T02:46:32.233Z,13.60
2023-02-08T02:47:32.464Z,14.60
2023-02-08T02:48:32.703Z,14.30
2023-02-08T02:49:32.965Z,13.40
2023-02-08T02:50:33.195Z,14.90
2023-02-08T02:51:33.432Z,13.60
2023-02-08T02:52:33.696Z,14.60
2023-02-08T02:53:33.927Z,14.40
2023-02-08T02:54:34.204Z,13.80
2023-02-08T02:55:34.427Z,13.50
2023-02-08T02:56:34.683Z,14.30
2023-02-08T02:57:34.913Z,14.00
2023-02-08T02:58:35.137Z,14.20
2023-02-08T02:59:35.509Z,14.20
2023-02-08T03:00:35.737Z,14.50
2023-02-08T03:01:35.980Z,14.80
2023-02-08T03:02:36.219Z,14.70
2023-02-08T03:03:36.458Z,14.70
2023-02-08T03:04:36.707Z,13.90
2023-02-08T03:05:36.938Z,14.20
2023-02-08T03:06:37.178Z,14.00
2023-02-08T03:07:37.422Z,15.10
2023-02-08T03:08:45.755Z,16.30
2023-02-08T03:09:38.279Z,15.80
2023-02-08T03:10:38.782Z,15.90
2023-02-08T03:11:38.574Z,15.00
2023-02-08T03:12:38.846Z,15.80
2023-02-08T03:13:39.136Z,15.30
2023-02-08T03:14:39.474Z,15.50
2023-02-08T03:15:39.761Z,15.20
2023-02-08T03:16:40.089Z,15.20
2023-02-08T03:17:40.418Z,15.60
2023-02-08T03:18:40.681Z,15.20
2023-02-08T03:19:40.990Z,15.90
2023-02-08T03:20:41.560Z,15.00
2023-02-08T03:21:41.594Z,14.90
2023-02-08T03:22:41.884Z,14.60
2023-02-08T03:23:42.210Z,14.80
2023-02-08T03:24:42.556Z,14.80
2023-02-08T03:25:42.740Z,14.90
2023-02-08T03:26:43.057Z,14.40
2023-02-08T03:27:43.361Z,15.90
2023-02-08T03:28:43.627Z,15.00
2023-02-08T03:29:43.942Z,15.00
2023-02-08T03:30:44.453Z,14.40
2023-02-08T03:31:44.603Z,15.40
2023-02-08T03:32:44.783Z,14.10
2023-02-08T03:33:45.049Z,14.70
2023-02-08T03:34:45.374Z,15.40
2023-02-08T03:35:45.687Z,14.50
2023-02-08T03:36:46.050Z,15.40
2023-02-08T03:37:46.352Z,15.70
2023-02-08T03:38:46.631Z,15.60
2023-02-08T03:39:46.897Z,15.20
2023-02-08T03:40:47.197Z,15.00
2023-02-08T03:41:47.477Z,15.80
2023-02-08T03:42:47.754Z,14.40
2023-02-08T03:43:48.194Z,15.30
2023-02-08T03:44:48.361Z,14.40
2023-02-08T03:45:48.670Z,14.70
2023-02-08T03:46:48.865Z,14.00
2023-02-08T03:47:49.156Z,14.80
2023-02-08T03:48:49.491Z,14.20
2023-02-08T03:49:49.668Z,14.20
2023-02-08T03:50:49.980Z,14.70
2023-02-08T03:51:50.237Z,15.70
2023-02-08T03:52:50.511Z,15.50
2023-02-08T03:53:50.838Z,14.80
2023-02-08T03:54:51.118Z,15.50
2023-02-08T03:55:51.423Z,14.60
2023-02-08T03:56:51.710Z,14.70
2023-02-08T03:57:51.987Z,15.10
2023-02-08T03:58:52.251Z,16.60
2023-02-08T03:59:52.572Z,15.90
2023-02-08T04:00:52.828Z,15.30
2023-02-08T04:01:53.076Z,16.20
2023-02-08T04:02:53.339Z,15.70
2023-02-08T04:03:53.616Z,16.00
2023-02-08T04:04:53.938Z,15.50
2023-02-08T04:05:54.246Z,15.50
2023-02-08T04:06:54.555Z,15.60
2023-02-08T04:07:54.816Z,15.80
2023-02-08T04:08:55.087Z,14.50
2023-02-08T04:09:55.378Z,15.90
2023-02-08T04:10:55.666Z,14.60
2023-02-08T04:11:55.905Z,15.20
2023-02-08T04:12:56.246Z,15.30
2023-02-08T04:13:56.509Z,14.80
2023-02-08T04:14:56.845Z,15.00
2023-02-08T04:15:57.186Z,14.90
2023-02-08T04:16:57.445Z,14.20
2023-02-08T04:17:57.721Z,16.10
2023-02-08T04:18:57.965Z,14.90
2023-02-08T04:19:58.267Z,15.20
2023-02-08T04:20:58.590Z,15.40
2023-02-08T04:21:58.877Z,15.50
2023-02-08T04:22:59.176Z,15.50
2023-02-08T04:23:59.474Z,15.50
2023-02-08T04:24:59.778Z,14.50
2023-02-08T04:26:00.103Z,15.80
2023-02-08T04:27:00.387Z,15.50
2023-02-08T04:28:00.671Z,16.10
2023-02-08T04:29:00.899Z,15.10
2023-02-08T04:30:01.209Z,15.90
2023-02-08T04:31:01.597Z,16.50
2023-02-08T04:32:01.767Z,16.70
2023-02-08T04:33:02.057Z,16.50
2023-02-08T04:34:02.311Z,16.50
2023-02-08T04:35:02.607Z,16.00
2023-02-08T04:36:02.861Z,15.80
2023-02-08T04:37:03.109Z,16.50
2023-02-08T04:38:03.360Z,15.80
2023-02-08T04:39:03.619Z,16.00
2023-02-08T04:40:03.918Z,16.20
2023-02-08T04:41:04.162Z,16.90
2023-02-08T04:42:04.473Z,15.40
2023-02-08T04:43:04.706Z,15.60
2023-02-08T04:44:04.968Z,16.60
2023-02-08T04:45:05.222Z,15.30
2023-02-08T04:46:05.577Z,15.10
2023-02-08T04:47:05.828Z,15.40
2023-02-08T04:48:06.114Z,14.80
2023-02-08T04:49:06.346Z,15.70
2023-02-08T04:50:06.655Z,15.20
2023-02-08T04:51:06.891Z,15.30
2023-02-08T04:52:07.166Z,14.50
2023-02-08T04:53:07.433Z,14.10
2023-02-08T04:54:07.672Z,15.50
2023-02-08T04:55:07.944Z,14.60
2023-02-08T04:56:08.180Z,15.60
2023-02-08T04:57:08.432Z,14.70
2023-02-08T04:58:08.692Z,15.60
2023-02-08T04:59:08.935Z,15.70
2023-02-08T05:00:09.200Z,16.10
2023-02-08T05:01:09.424Z,16.40
2023-02-08T05:02:09.703Z,15.00
2023-02-08T05:03:09.964Z,16.20
2023-02-08T05:04:10.256Z,16.40
2023-02-08T05:05:10.579Z,17.40
2023-02-08T05:06:10.859Z,16.70
2023-02-08T05:07:11.155Z,16.80
2023-02-08T05:08:11.423Z,14.90
2023-02-08T05:09:11.678Z,15.90
2023-02-08T05:10:11.981Z,16.50
2023-02-08T05:11:12.238Z,17.60
2023-02-08T05:12:12.519Z,17.50
2023-02-08T05:13:12.808Z,17.10
2023-02-08T05:14:13.078Z,17.00
2023-02-08T05:15:13.372Z,17.40
2023-02-08T05:16:13.688Z,17.60
2023-02-08T05:17:13.926Z,17.90
2023-02-08T05:18:14.199Z,18.10
2023-02-08T05:19:14.573Z,20.70
2023-02-08T05:20:14.916Z,19.00
2023-02-08T05:21:15.140Z,18.50
2023-02-08T05:22:15.412Z,17.80
2023-02-08T05:23:15.652Z,19.20
2023-02-08T05:24:15.911Z,19.60
2023-02-08T05:25:16.178Z,19.00
2023-02-08T05:26:16.447Z,17.30
2023-02-08T05:27:16.845Z,19.00
2023-02-08T05:28:17.107Z,19.10
2023-02-08T05:29:17.354Z,18.10
2023-02-08T05:30:17.640Z,18.90
2023-02-08T05:31:18.017Z,17.80
2023-02-08T05:32:18.202Z,18.00
2023-02-08T05:33:18.479Z,19.80
2023-02-08T05:34:18.736Z,19.20
2023-02-08T05:35:19.015Z,18.20
2023-02-08T05:36:19.269Z,18.70
2023-02-08T05:37:19.502Z,19.90
2023-02-08T05:38:19.755Z,20.00
2023-02-08T05:39:19.998Z,19.50
2023-02-08T05:40:20.278Z,19.40
2023-02-08T05:41:20.534Z,19.80
2023-02-08T05:42:20.796Z,19.10
2023-02-08T05:43:21.077Z,20.30
2023-02-08T05:44:21.326Z,17.80
2023-02-08T05:45:21.593Z,17.30
2023-02-08T05:46:21.861Z,19.20
2023-02-08T05:47:22.130Z,20.20
2023-02-08T05:48:22.409Z,20.50
2023-02-08T05:49:22.714Z,22.40
2023-02-08T05:50:23.013Z,20.70
2023-02-08T05:51:23.280Z,23.40
2023-02-08T05:52:23.555Z,22.80
2023-02-08T05:53:23.895Z,19.50
2023-02-08T05:54:24.172Z,19.50
2023-02-08T05:55:24.491Z,20.40
2023-02-08T05:56:24.755Z,19.40
2023-02-08T05:57:25.003Z,22.30
2023-02-08T05:58:25.321Z,20.10
2023-02-08T05:59:25.615Z,21.80
2023-02-08T06:00:25.980Z,21.80
2023-02-08T06:01:26.225Z,21.60
2023-02-08T06:02:26.535Z,21.10
2023-02-08T06:03:26.873Z,19.60
2023-02-08T06:04:27.244Z,20.40
2023-02-08T06:05:27.487Z,20.10
2023-02-08T06:06:27.729Z,20.40
2023-02-08T06:07:27.996Z,19.80
2023-02-08T06:08:28.251Z,21.00
2023-02-08T06:09:28.538Z,20.10
2023-02-08T06:10:28.825Z,20.30
2023-02-08T06:11:29.186Z,20.60
2023-02-08T06:12:29.342Z,21.80
2023-02-08T06:13:29.608Z,21.90
2023-02-08T06:14:29.866Z,21.70
2023-02-08T06:15:30.151Z,21.00
2023-02-08T06:16:30.515Z,20.40
2023-02-08T06:17:30.684Z,20.30
2023-02-08T06:18:31.002Z,19.90
2023-02-08T06:19:31.278Z,20.80
2023-02-08T06:20:31.601Z,20.50
2023-02-08T06:21:31.869Z,19.40
2023-02-08T06:22:32.144Z,19.80
2023-02-08T06:23:32.394Z,19.30
2023-02-08T06:24:32.693Z,19.60
2023-02-08T06:25:33.016Z,20.20
2023-02-08T06:26:33.267Z,19.00
2023-02-08T06:27:33.547Z,19.90
2023-02-08T06:28:33.942Z,20.40
2023-02-08T06:29:34.067Z,20.70
2023-02-08T06:30:34.425Z,20.10
2023-02-08T06:31:34.714Z,20.80
2023-02-08T06:32:34.868Z,22.40
2023-02-08T06:33:35.168Z,22.10
2023-02-08T06:34:35.468Z,22.20
2023-02-08T06:35:35.789Z,22.80
2023-02-08T06:36:36.091Z,24.20
2023-02-08T06:37:36.379Z,23.60
2023-02-08T06:38:36.646Z,24.30
2023-02-08T06:39:36.934Z,26.20
2023-02-08T06:40:37.207Z,28.00
2023-02-08T06:41:37.469Z,25.40
2023-02-08T06:42:37.728Z,23.70
2023-02-08T06:43:37.988Z,24.30
2023-02-08T06:44:39.352Z,23.60
2023-02-08T06:45:39.583Z,22.70
2023-02-08T06:46:38.769Z,22.90
2023-02-08T06:47:39.018Z,23.50
2023-02-08T06:48:39.276Z,22.40
2023-02-08T06:49:39.535Z,23.90
2023-02-08T06:50:40.227Z,23.80
2023-02-08T06:51:40.076Z,23.30
2023-02-08T06:52:40.338Z,22.10
2023-02-08T06:53:40.618Z,21.80
2023-02-08T06:54:40.870Z,22.50
2023-02-08T06:55:41.164Z,22.60
2023-02-08T06:56:41.424Z,22.40
2023-02-08T06:57:41.681Z,24.00
2023-02-08T06:58:41.934Z,23.60
2023-02-08T06:59:42.210Z,22.70
2023-02-08T07:00:42.725Z,23.40
2023-02-08T07:01:42.801Z,24.10
2023-02-08T07:02:43.116Z,24.10
2023-02-08T07:03:43.416Z,24.60
2023-02-08T07:04:43.668Z,25.10
2023-02-08T07:05:58.779Z,26.10
2023-02-08T07:06:45.178Z,22.40
2023-02-08T07:07:44.581Z,24.70
2023-02-08T07:08:46.291Z,22.90
2023-02-08T07:09:45.134Z,23.90
2023-02-08T07:10:46.437Z,25.30
2023-02-08T07:11:45.726Z,25.30
2023-02-08T07:12:45.991Z,26.00
2023-02-08T07:13:46.259Z,24.10
2023-02-08T07:14:46.531Z,25.00
2023-02-08T07:15:46.839Z,25.10
2023-02-08T07:16:47.236Z,24.90
2023-02-08T07:17:47.395Z,25.50
2023-02-08T07:18:47.662Z,25.50
2023-02-08T07:19:47.938Z,25.00
2023-02-08T07:20:48.252Z,25.50
2023-02-08T07:21:48.522Z,26.20
2023-02-08T07:22:48.794Z,25.30
2023-02-08T07:23:49.079Z,25.70
2023-02-08T07:24:49.342Z,25.00
2023-02-08T07:25:49.634Z,26.40
2023-02-08T07:26:49.961Z,29.30
2023-02-08T07:27:50.264Z,25.60
2023-02-08T07:28:50.539Z,27.80
2023-02-08T07:29:50.862Z,28.60
2023-02-08T07:30:51.189Z,26.50
2023-02-08T07:31:51.457Z,28.60
2023-02-08T07:32:51.622Z,25.50
2023-02-08T07:33:51.909Z,28.70
2023-02-08T07:34:52.184Z,25.40
2023-02-08T07:35:52.517Z,26.20
2023-02-08T07:36:52.806Z,26.50
2023-02-08T07:37:53.081Z,26.40
2023-02-08T07:38:53.355Z,27.70
2023-02-08T07:39:53.631Z,27.20
2023-02-08T07:40:53.911Z,27.90
2023-02-08T07:41:54.206Z,27.20
2023-02-08T07:42:54.494Z,27.20
2023-02-08T07:43:54.762Z,27.80
2023-02-08T07:44:55.033Z,27.30
2023-02-08T07:45:55.357Z,25.40
2023-02-08T07:46:55.639Z,26.40
2023-02-08T07:47:55.943Z,25.80
2023-02-08T07:48:56.227Z,26.90
2023-02-08T07:49:56.517Z,27.30
2023-02-08T07:50:56.814Z,26.50
2023-02-08T07:51:57.091Z,27.40
2023-02-08T07:52:57.355Z,27.50
2023-02-08T07:53:57.653Z,27.20
2023-02-08T07:54:57.982Z,27.10
2023-02-08T07:55:58.256Z,28.40
2023-02-08T07:56:58.564Z,26.70
2023-02-08T07:57:58.826Z,29.20
2023-02-08T07:58:59.153Z,28.70
2023-02-08T07:59:59.445Z,28.60
2023-02-08T08:01:04.750Z,26.60
2023-02-08T08:02:01.063Z,29.10
2023-02-08T08:03:00.311Z,26.90
2023-02-08T08:04:00.631Z,27.60
2023-02-08T08:05:00.897Z,27.80
2023-02-08T08:06:01.212Z,28.30
2023-02-08T08:07:01.486Z,26.80
2023-02-08T08:08:01.816Z,27.70
2023-02-08T08:09:02.107Z,27.10
2023-02-08T08:10:02.405Z,28.20
2023-02-08T08:11:03.869Z,27.10
2023-02-08T08:12:02.928Z,28.40
2023-02-08T08:13:03.240Z,27.80
2023-02-08T08:14:03.558Z,27.30
2023-02-08T08:15:03.837Z,27.00
2023-02-08T08:16:04.167Z,28.50
2023-02-08T08:17:04.465Z,26.30
2023-02-08T08:18:04.826Z,25.10
2023-02-08T08:19:05.068Z,24.80
2023-02-08T08:20:05.427Z,25.80
2023-02-08T08:21:05.846Z,26.10
2023-02-08T08:22:05.917Z,27.40
2023-02-08T08:23:06.673Z,26.60
2023-02-08T08:24:06.486Z,25.70
2023-02-08T08:25:06.782Z,26.60
2023-02-08T08:26:07.000Z,27.00
2023-02-08T08:27:07.324Z,24.90
2023-02-08T08:28:07.645Z,25.10
2023-02-08T08:29:08.003Z,26.10
2023-02-08T08:30:08.178Z,25.20
2023-02-08T08:31:08.788Z,25.40
2023-02-08T08:32:10.305Z,25.80
2023-02-08T08:33:09.080Z,24.50
2023-02-08T08:34:09.403Z,26.80
2023-02-08T08:35:09.697Z,27.70
2023-02-08T08:36:09.999Z,27.30
2023-02-08T08:37:10.288Z,26.30
2023-02-08T08:38:10.569Z,26.90
2023-02-08T08:39:10.866Z,27.30
2023-02-08T08:40:11.160Z,26.60
2023-02-08T08:41:11.467Z,27.50
2023-02-08T08:42:11.804Z,26.30
2023-02-08T08:43:12.073Z,26.80
2023-02-08T08:44:12.349Z,26.00
2023-02-08T08:45:12.649Z,26.60
2023-02-08T08:46:13.024Z,26.70
2023-02-08T08:47:13.210Z,26.30
2023-02-08T08:48:13.499Z,27.00
2023-02-08T08:49:13.772Z,26.30
2023-02-08T08:50:14.042Z,25.70
2023-02-08T08:51:14.353Z,25.50
2023-02-08T08:52:14.642Z,25.40
2023-02-08T08:53:14.939Z,26.00
2023-02-08T08:54:15.255Z,26.10
2023-02-08T08:55:15.566Z,26.50
2023-02-08T08:56:15.885Z,25.40
2023-02-08T08:57:16.155Z,24.70
2023-02-08T08:58:16.493Z,24.60
2023-02-08T08:59:16.783Z,26.60
2023-02-08T09:00:17.092Z,24.00
2023-02-08T09:01:17.390Z,25.20
2023-02-08T09:02:17.671Z,24.70
2023-02-08T09:03:17.985Z,24.20
2023-02-08T09:04:18.263Z,23.70
2023-02-08T09:05:18.532Z,24.30
2023-02-08T09:06:18.830Z,23.70
2023-02-08T09:07:19.126Z,26.90
2023-02-08T09:08:26.932Z,24.50
2023-02-08T09:09:19.676Z,25.50
2023-02-08T09:10:19.944Z,23.80
2023-02-08T09:11:20.228Z,25.60
2023-02-08T09:12:20.486Z,25.20
2023-02-08T09:13:20.761Z,26.00
2023-02-08T09:14:21.034Z,26.90
2023-02-08T09:15:21.302Z,25.70
2023-02-08T09:16:21.600Z,27.50
2023-02-08T09:17:21.847Z,25.50
2023-02-08T09:18:22.132Z,25.10
2023-02-08T09:19:22.469Z,26.00
2023-02-08T09:20:22.722Z,26.60
2023-02-08T09:21:23.082Z,27.40
2023-02-08T09:22:23.236Z,27.00
2023-02-08T09:23:23.501Z,25.10
2023-02-08T09:24:23.765Z,27.70
2023-02-08T09:25:24.035Z,28.30
2023-02-08T09:26:24.325Z,27.50
2023-02-08T09:27:24.594Z,26.70
2023-02-08T09:28:24.938Z,26.40
2023-02-08T09:29:25.100Z,26.60
2023-02-08T09:30:25.372Z,26.10
2023-02-08T09:31:25.757Z,26.80
2023-02-08T09:32:25.902Z,28.20
2023-02-08T09:33:26.170Z,29.20
2023-02-08T09:34:26.506Z,27.40
2023-02-08T09:35:26.773Z,25.40
2023-02-08T09:36:27.056Z,26.60
2023-02-08T09:37:27.323Z,26.50
2023-02-08T09:38:27.595Z,24.90
2023-02-08T09:39:27.859Z,27.20
2023-02-08T09:40:28.147Z,27.20
2023-02-08T09:41:28.472Z,27.40
2023-02-08T09:42:28.739Z,27.60
2023-02-08T09:43:29.017Z,27.50
2023-02-08T09:44:29.300Z,27.00
2023-02-08T09:45:29.560Z,26.80
2023-02-08T09:46:29.888Z,27.80
2023-02-08T09:47:30.131Z,26.80
2023-02-08T09:48:30.399Z,26.00
2023-02-08T09:49:30.672Z,26.90
2023-02-08T09:50:30.939Z,28.10
2023-02-08T09:51:31.610Z,28.20
2023-02-08T09:52:31.441Z,28.00
2023-02-08T09:53:31.940Z,27.20
2023-02-08T09:54:31.966Z,26.60
2023-02-08T09:55:33.712Z,26.90
2023-02-08T09:56:32.629Z,25.20
2023-02-08T09:57:32.839Z,27.40
2023-02-08T09:58:33.120Z,28.50
2023-02-08T09:59:33.840Z,27.00
2023-02-08T10:00:33.739Z,27.60
2023-02-08T10:01:34.054Z,30.00
2023-02-08T10:02:34.513Z,28.70
2023-02-08T10:03:34.673Z,27.50
2023-02-08T10:04:34.886Z,27.50
2023-02-08T10:05:35.182Z,28.30
2023-02-08T10:06:35.587Z,27.40
2023-02-08T10:07:35.744Z,29.30
2023-02-08T10:08:36.136Z,27.00
2023-02-08T10:09:36.427Z,29.40
2023-02-08T10:10:36.662Z,31.00
2023-02-08T10:11:36.844Z,28.10
2023-02-08T10:12:37.097Z,27.20
2023-02-08T10:13:41.557Z,27.80
2023-02-08T10:14:37.701Z,28.20
2023-02-08T10:15:38.022Z,27.20
2023-02-08T10:16:38.455Z,30.00
2023-02-08T10:17:38.650Z,28.60
2023-02-08T10:18:38.923Z,28.50
2023-02-08T10:19:39.200Z,28.30
2023-02-08T10:20:39.520Z,29.10
2023-02-08T10:21:39.804Z,27.80
2023-02-08T10:22:40.097Z,27.30
2023-02-08T10:23:40.388Z,29.80
2023-02-08T10:24:40.720Z,30.00
2023-02-08T10:25:41.012Z,28.40
2023-02-08T10:26:41.307Z,29.10
2023-02-08T10:27:41.613Z,29.40
2023-02-08T10:28:41.925Z,30.80
2023-02-08T10:29:42.205Z,29.10
2023-02-08T10:30:42.780Z,29.30
2023-02-08T10:31:42.850Z,28.30
2023-02-08T10:32:43.092Z,28.60
2023-02-08T10:33:43.374Z,27.70
2023-02-08T10:34:43.649Z,26.20
2023-02-08T10:35:44.170Z,28.80
2023-02-08T10:36:44.261Z,30.00
2023-02-08T10:37:44.522Z,28.40
2023-02-08T10:38:47.076Z,30.50
2023-02-08T10:39:45.141Z,30.80
2023-02-08T10:40:45.451Z,28.50
2023-02-08T10:41:45.713Z,29.00
2023-02-08T10:42:46.077Z,29.10
2023-02-08T10:43:46.350Z,29.50
2023-02-08T10:44:48.377Z,30.00
2023-02-08T10:45:46.956Z,28.80
2023-02-08T10:46:47.269Z,29.10
2023-02-08T10:47:47.554Z,31.00
2023-02-08T10:48:47.854Z,30.90
2023-02-08T10:49:48.111Z,31.10
2023-02-08T10:50:48.392Z,28.70
2023-02-08T10:51:48.710Z,29.50
2023-02-08T10:52:48.985Z,29.70
2023-02-08T10:53:49.304Z,28.80
2023-02-08T10:54:49.592Z,29.30
2023-02-08T10:55:49.896Z,29.40
2023-02-08T10:56:50.215Z,29.50
2023-02-08T10:57:50.521Z,29.60
2023-02-08T10:58:50.802Z,31.20
2023-02-08T10:59:51.099Z,29.90
2023-02-08T11:00:51.440Z,29.90
2023-02-08T11:01:51.671Z,30.50
2023-02-08T11:02:51.973Z,29.70
2023-02-08T11:03:52.308Z,30.10
2023-02-08T11:04:52.615Z,29.30
2023-02-08T11:05:52.912Z,29.80
2023-02-08T11:06:53.244Z,32.30
2023-02-08T11:07:53.532Z,29.50
2023-02-08T11:08:53.801Z,28.90
2023-02-08T11:09:54.107Z,30.80
2023-02-08T11:10:54.404Z,28.70
2023-02-08T11:11:56.674Z,28.40
2023-02-08T11:12:55.019Z,31.10
2023-02-08T11:13:55.305Z,30.60
2023-02-08T11:14:55.580Z,30.00
2023-02-08T11:15:55.863Z,30.10
2023-02-08T11:16:56.171Z,30.50
2023-02-08T11:17:56.463Z,29.50
2023-02-08T11:18:56.750Z,29.20
2023-02-08T11:19:57.040Z,29.80
2023-02-08T11:20:57.309Z,31.40
2023-02-08T11:21:57.595Z,31.30
2023-02-08T11:22:57.884Z,31.30
2023-02-08T11:23:58.149Z,32.60
2023-02-08T11:24:58.424Z,30.40
2023-02-08T11:25:58.718Z,32.70
2023-02-08T11:26:58.984Z,29.40
2023-02-08T11:27:59.328Z,30.40
2023-02-08T11:28:59.640Z,29.30
2023-02-08T11:29:59.917Z,30.10
2023-02-08T11:31:00.291Z,31.80
2023-02-08T11:32:00.475Z,30.20
2023-02-08T11:33:00.757Z,31.50
2023-02-08T11:34:01.038Z,29.80
2023-02-08T11:35:01.337Z,29.90
2023-02-08T11:36:01.624Z,28.70
2023-02-08T11:37:01.899Z,30.90
2023-02-08T11:38:02.190Z,30.80
2023-02-08T11:39:02.468Z,31.50
2023-02-08T11:40:02.739Z,29.80
2023-02-08T11:41:02.994Z,30.50
2023-02-08T11:42:03.280Z,28.20
2023-02-08T11:43:03.624Z,31.40
2023-02-08T11:44:03.913Z,28.10
2023-02-08T11:45:04.174Z,30.90
2023-02-08T11:46:04.566Z,31.00
2023-02-08T11:47:04.710Z,30.80
2023-02-08T11:48:05.032Z,31.50
2023-02-08T11:49:05.269Z,31.50
2023-02-08T11:50:05.531Z,28.90
2023-02-08T11:51:05.844Z,29.20
2023-02-08T11:52:06.129Z,29.20
2023-02-08T11:53:06.413Z,31.20
2023-02-08T11:54:06.721Z,30.80
2023-02-08T11:55:06.997Z,30.50
2023-02-08T11:56:07.256Z,30.20
2023-02-08T11:57:07.533Z,28.30
2023-02-08T11:58:07.883Z,29.10
2023-02-08T11:59:08.038Z,30.20
2023-02-08T12:00:08.318Z,31.20
2023-02-08T12:01:08.583Z,29.30
2023-02-08T12:02:08.929Z,29.40
2023-02-08T12:03:09.213Z,31.80
2023-02-08T12:04:09.562Z,31.50
2023-02-08T12:05:09.731Z,29.30
2023-02-08T12:06:10.016Z,30.10
2023-02-08T12:07:10.310Z,29.70
2023-02-08T12:08:10.706Z,28.70
2023-02-08T12:09:11.049Z,29.90
2023-02-08T12:10:11.106Z,30.90
2023-02-08T12:11:11.393Z,29.70
2023-02-08T12:12:11.676Z,28.70
2023-02-08T12:13:12.056Z,29.00
2023-02-08T12:14:12.219Z,28.40
2023-02-08T12:15:12.495Z,29.50
2023-02-08T12:16:12.851Z,30.30
2023-02-08T12:17:13.025Z,28.30
2023-02-08T12:18:13.335Z,30.10
2023-02-08T12:19:13.627Z,29.00
2023-02-08T12:20:13.922Z,27.50
2023-02-08T12:21:14.250Z,27.80
2023-02-08T12:22:14.528Z,27.90
2023-02-08T12:23:14.884Z,28.60
2023-02-08T12:24:15.226Z,26.40
2023-02-08T12:25:15.493Z,28.50
2023-02-08T12:26:15.774Z,28.30
2023-02-08T12:27:17.309Z,28.20
2023-02-08T12:28:16.410Z,26.70
2023-02-08T12:29:16.639Z,27.00
2023-02-08T12:30:16.814Z,26.30
2023-02-08T12:31:17.168Z,26.70
2023-02-08T12:32:17.387Z,27.10
2023-02-08T12:33:17.616Z,26.30
2023-02-08T12:34:17.790Z,28.10
2023-02-08T12:35:24.181Z,27.70
2023-02-08T12:36:19.423Z,27.50
2023-02-08T12:37:18.635Z,27.00
2023-02-08T12:38:19.005Z,27.00
2023-02-08T12:39:20.941Z,27.50
2023-02-08T12:40:19.473Z,26.50
2023-02-08T12:41:19.777Z,25.70
2023-02-08T12:42:20.094Z,27.90
2023-02-08T12:43:20.411Z,26.50
2023-02-08T12:44:20.707Z,27.20
2023-02-08T12:45:20.987Z,27.30
2023-02-08T12:46:21.355Z,28.20
2023-02-08T12:47:21.531Z,30.40
2023-02-08T12:48:21.910Z,31.40
2023-02-08T12:49:22.125Z,29.60
2023-02-08T12:50:22.504Z,26.60
2023-02-08T12:51:22.752Z,28.10
2023-02-08T12:52:23.034Z,27.90
2023-02-08T12:53:24.245Z,27.70
2023-02-08T12:54:23.486Z,28.00
2023-02-08T12:55:23.838Z,27.80
2023-02-08T12:56:24.021Z,26.90